Time;durP1;ratioP1;P1;durP2;ratioP2;P2;SDS_P1;SDS_P2;PMS_P1;PMS_P2;Temp;Humidity;BMP_temperature;BMP_pressure;BME280_temperature;BME280_humidity;BME280_pressure;Samples;Min_cycle;Max_cycle;Signal;HPM_P1;HPM_P2
2022/01/28 00:00:16;;;;;;;;;;;;;;;0.65;100.00;96762.03;1027147;28;19914;-70
2022/01/28 00:00:52;;;;;;;;;;;;;;;0.66;100.00;96757.66;1023472;28;19926;-70
2022/01/28 00:01:27;;;;;;;;;;;;;;;0.67;100.00;96765.25;1024253;28;19917;-70
2022/01/28 00:02:14;;;;;;;;;;;;;;;0.67;100.00;96765.25;1027470;28;20001;-70
2022/01/28 00:02:54;;;;;;;;;;;;;;;0.68;100.00;96768.63;1034244;28;19993;-69
2022/01/28 00:03:24;;;;;;;;;;;;;;;0.65;100.00;96772.38;1030813;28;20728;-70
2022/01/28 00:04:01;;;;;;;;;;;;;;;0.65;100.00;96771.56;1031391;28;19929;-70
2022/01/28 00:04:31;;;;;;;;;;;;;;;0.65;100.00;96767.19;1033660;28;19985;-69
2022/01/28 00:05:02;;;;;;;;;;;;;;;0.65;100.00;96774.94;1032044;28;20040;-70
2022/01/28 00:05:32;;;;;;;;;;;;;;;0.67;100.00;96775.59;1036029;28;19956;-70
2022/01/28 00:06:03;;;;;;;;;;;;;;;0.64;100.00;96770.75;1035549;28;19932;-70
2022/01/28 00:06:33;;;;;;;;;;;;;;;0.61;100.00;96765.94;1036138;28;19939;-70
2022/01/28 00:07:04;;;;;;;;;;;;;;;0.60;100.00;96768.69;1043692;28;19912;-69
2022/01/28 00:07:34;;;;;;;;;;;;;;;0.57;100.00;96766.44;1043416;28;19980;-70
2022/01/28 00:08:04;;;;;;;;;;;;;;;0.56;100.00;96768.22;1039389;28;19905;-69
2022/01/28 00:08:35;;;;;;;;;;;;;;;0.56;100.00;96767.44;1035829;28;19909;-70
2022/01/28 00:09:05;;;;;;;;;;;;;;;0.56;100.00;96773.41;1027441;28;20475;-69
2022/01/28 00:09:35;;;;;;;;;;;;;;;0.58;100.00;96768.88;1031219;28;19916;-70
2022/01/28 00:10:06;;;;;;;;;;;;;;;0.55;100.00;96771.81;1028502;28;20395;-70
2022/01/28 00:10:39;;;;;;;;;;;;;;;0.56;100.00;96775.97;1031202;28;19986;-70
2022/01/28 00:11:11;;;;;;;;;;;;;;;0.60;100.00;96774.66;1033028;28;20285;-69
2022/01/28 00:11:41;;;;;;;;;;;;;;;0.37;100.00;96748.03;1032858;28;19980;-69
2022/01/28 00:12:12;;;;;;;;;;;;;;;0.61;100.00;96775.47;1038694;28;19957;-70
2022/01/28 00:13:16;;;;;;;;;;;;;;;0.60;100.00;96779.00;1028113;28;19930;-70
2022/01/28 00:13:39;;;;;;;;;;;;;;;0.58;100.00;96789.53;1029203;28;20327;-71
2022/01/28 00:14:25;;;;;;;;;;;;;;;0.61;100.00;96796.13;1032218;28;19949;-70
2022/01/28 00:15:13;;;;;;;;;;;;;;;0.59;100.00;96785.97;1034865;28;19909;-70
2022/01/28 00:18:01;;;;;;;;;;;;;;;0.62;100.00;96802.91;1030020;28;19910;-71
2022/01/28 00:18:57;;;;;;;;;;;;;;;0.55;100.00;96789.88;1031408;28;19918;-71
2022/01/28 00:38:32;;;;;;;;;;;;;;;0.34;100.00;96811.16;1035259;28;20044;-69
2022/01/28 00:39:02;;;;;;;;;;;;;;;0.33;100.00;96799.22;1035337;28;20004;-70
2022/01/28 00:39:33;;;;;;;;;;;;;;;0.34;100.00;96803.44;1035178;28;19921;-70
2022/01/28 00:40:04;;;;;;;;;;;;;;;0.33;100.00;96796.63;1035459;28;19910;-71
2022/01/28 00:40:34;;;;;;;;;;;;;;;0.33;100.00;96809.53;1023172;28;20368;-70
2022/01/28 00:41:04;;;;;;;;;;;;;;;0.32;100.00;96792.47;1022835;28;20479;-70
2022/01/28 00:41:35;;;;;;;;;;;;;;;0.31;100.00;96800.38;1027079;28;19938;-71
2022/01/28 00:42:05;;;;;;;;;;;;;;;0.28;100.00;96791.19;1027285;28;19907;-70
2022/01/28 00:42:35;;;;;;;;;;;;;;;0.27;100.00;96784.44;1031035;28;20479;-71
2022/01/28 00:43:06;;;;;;;;;;;;;;;0.27;100.00;96796.50;1030462;28;19914;-70
2022/01/28 00:43:36;;;;;;;;;;;;;;;0.24;100.00;96784.78;1035377;28;19956;-71
2022/01/28 00:44:06;;;;;;;;;;;;;;;0.21;100.00;96791.09;1035080;28;19938;-70
2022/01/28 00:44:37;;;;;;;;;;;;;;;0.23;100.00;96803.81;1035268;28;20367;-71
2022/01/28 00:45:07;;;;;;;;;;;;;;;0.23;100.00;96798.63;1027098;28;19929;-70
2022/01/28 00:45:38;;;;;;;;;;;;;;;0.21;100.00;96795.44;1027243;28;19953;-71
2022/01/28 00:46:08;;;;;;;;;;;;;;;0.18;100.00;96796.56;1027025;28;19910;-70
2022/01/28 00:46:38;;;;;;;;;;;;;;;0.19;100.00;96795.59;1027305;28;19913;-70
2022/01/28 00:47:08;;;;;;;;;;;;;;;0.18;100.00;96804.31;1031058;28;19910;-70
2022/01/28 00:47:39;;;;;;;;;;;;;;;0.16;100.00;96797.72;1031354;28;20044;-70
2022/01/28 00:48:09;;;;;;;;;;;;;;;0.18;100.00;96799.16;1035099;28;19916;-70
2022/01/28 00:48:39;;;;;;;;;;;;;;;0.17;100.00;96807.88;1030012;28;19916;-70
2022/01/28 00:49:10;;;;;;;;;;;;;;;0.17;100.00;96814.81;1030867;28;19906;-70
2022/01/28 00:49:40;;;;;;;;;;;;;;;0.18;100.00;96821.59;1035040;28;20446;-70
2022/01/28 00:50:11;;;;;;;;;;;;;;;0.18;100.00;96808.69;1031153;28;19910;-69
2022/01/28 00:50:42;;;;;;;;;;;;;;;0.19;100.00;96818.03;1019325;29;19919;-70
2022/01/28 00:51:12;;;;;;;;;;;;;;;0.20;100.00;96824.78;1015138;29;19962;-70
2022/01/28 00:51:43;;;;;;;;;;;;;;;0.21;100.00;96822.03;1015405;29;20642;-70
2022/01/28 00:52:13;;;;;;;;;;;;;;;0.22;100.00;96818.47;1023490;28;19918;-70
2022/01/28 00:52:43;;;;;;;;;;;;;;;0.20;100.00;96820.44;1022869;29;19915;-70
2022/01/28 00:53:14;;;;;;;;;;;;;;;0.18;100.00;96817.22;1022321;28;20397;-70
2022/01/28 00:53:44;;;;;;;;;;;;;;;0.20;100.00;96812.72;1023928;28;19981;-70
2022/01/28 00:54:14;;;;;;;;;;;;;;;0.21;100.00;96826.41;1023135;29;19918;-69
2022/01/28 00:54:45;;;;;;;;;;;;;;;0.22;100.00;96821.06;1028827;28;20402;-70
2022/01/28 00:55:15;;;;;;;;;;;;;;;0.25;100.00;96821.72;1031058;28;20492;-70
2022/01/28 00:55:45;;;;;;;;;;;;;;;0.24;100.00;96828.66;1030655;28;20264;-70
2022/01/28 00:56:16;;;;;;;;;;;;;;;0.25;100.00;96829.44;1033467;28;19909;-69
2022/01/28 00:56:46;;;;;;;;;;;;;;;0.25;100.00;96816.53;1034776;28;20371;-70
2022/01/28 00:57:16;;;;;;;;;;;;;;;0.27;100.00;96817.16;1035128;28;19981;-70
2022/01/28 00:57:46;;;;;;;;;;;;;;;0.27;100.00;96822.31;1027374;28;19917;-69
2022/01/28 00:58:17;;;;;;;;;;;;;;;0.27;100.00;96819.75;1025527;28;19906;-70
2022/01/28 00:58:48;;;;;;;;;;;;;;;0.28;100.00;96816.22;1027092;28;19910;-69
2022/01/28 00:59:18;;;;;;;;;;;;;;;0.29;100.00;96812.66;1031335;28;19914;-69
2022/01/28 00:59:49;;;;;;;;;;;;;;;0.27;100.00;96820.56;1030947;28;19917;-70
2022/01/28 01:00:19;;;;;;;;;;;;;;;0.29;100.00;96817.81;1031181;28;19920;-70
2022/01/28 01:00:49;;;;;;;;;;;;;;;0.28;100.00;96817.00;1023122;29;19911;-69
2022/01/28 01:01:20;;;;;;;;;;;;;;;0.30;100.00;96819.41;1023282;28;20405;-69
2022/01/28 01:01:50;;;;;;;;;;;;;;;0.31;100.00;96826.19;1026920;28;19907;-70
2022/01/28 01:02:21;;;;;;;;;;;;;;;0.31;100.00;96816.66;1023114;28;20001;-70
2022/01/28 01:02:51;;;;;;;;;;;;;;;0.32;100.00;96815.69;1026156;28;20407;-70
2022/01/28 01:03:21;;;;;;;;;;;;;;;0.33;100.00;96819.88;1022811;28;20032;-70
2022/01/28 01:03:52;;;;;;;;;;;;;;;0.34;100.00;96818.91;1019001;29;20337;-70
2022/01/28 01:04:24;;;;;;;;;;;;;;;0.19;100.00;96802.53;1023168;29;19967;-69
2022/01/28 01:04:54;;;;;;;;;;;;;;;0.34;100.00;96831.81;1022974;28;19961;-69
2022/01/28 01:05:24;;;;;;;;;;;;;;;0.36;100.00;96823.88;1031022;28;19906;-70
2022/01/28 01:05:54;;;;;;;;;;;;;;;0.36;100.00;96829.06;1031149;28;19957;-70
2022/01/28 01:06:25;;;;;;;;;;;;;;;0.37;100.00;96821.16;1035248;28;19913;-70
2022/01/28 01:06:55;;;;;;;;;;;;;;;0.38;100.00;96827.13;1039135;28;20012;-70
2022/01/28 01:07:26;;;;;;;;;;;;;;;0.39;100.00;96826.13;1035228;28;19914;-70
2022/01/28 01:07:56;;;;;;;;;;;;;;;0.38;100.00;96820.16;1039174;28;20428;-69
2022/01/28 01:08:26;;;;;;;;;;;;;;;0.40;100.00;96825.16;1039085;28;19909;-70
2022/01/28 01:08:56;;;;;;;;;;;;;;;0.40;100.00;96831.13;1039308;28;19913;-69
2022/01/28 01:09:27;;;;;;;;;;;;;;;0.40;100.00;96827.72;1035085;28;19914;-69
2022/01/28 01:09:57;;;;;;;;;;;;;;;0.40;100.00;96840.63;1030987;28;19920;-70
2022/01/28 01:10:28;;;;;;;;;;;;;;;0.42;100.00;96833.53;1031034;28;19928;-69
2022/01/28 01:10:58;;;;;;;;;;;;;;;0.42;100.00;96833.53;1027232;28;20480;-70
2022/01/28 01:11:28;;;;;;;;;;;;;;;0.40;100.00;96838.06;1026963;28;20519;-70
2022/01/28 01:11:59;;;;;;;;;;;;;;;0.39;100.00;96828.72;1025119;28;20438;-69
2022/01/28 01:12:32;;;;;;;;;;;;;;;0.42;100.00;96838.69;1030816;28;19912;-70
2022/01/28 01:13:02;;;;;;;;;;;;;;;0.44;100.00;96841.94;1035043;28;19909;-69
2022/01/28 01:13:39;;;;;;;;;;;;;;;0.42;100.00;96838.69;1030914;28;20776;-69
2022/01/28 01:14:09;;;;;;;;;;;;;;;0.45;100.00;96840.94;1030977;28;20533;-69
2022/01/28 01:14:39;;;;;;;;;;;;;;;0.43;100.00;96840.28;1027106;28;19922;-69
2022/01/28 01:15:11;;;;;;;;;;;;;;;0.44;100.00;96847.09;1023764;28;19903;-69
2022/01/28 01:15:45;;;;;;;;;;;;;;;0.43;100.00;96835.94;1027206;28;19914;-69
2022/01/28 01:16:19;;;;;;;;;;;;;;;0.43;100.00;96846.25;1026856;28;19910;-69
2022/01/28 01:17:18;;;;;;;;;;;;;;;0.45;100.00;96843.53;1022821;28;20009;-69
2022/01/28 01:17:59;;;;;;;;;;;;;;;0.43;100.00;96843.69;1023130;29;19956;-69
2022/01/28 01:18:46;;;;;;;;;;;;;;;0.43;100.00;96837.72;1024160;28;19911;-69
2022/01/28 01:19:22;;;;;;;;;;;;;;;0.39;100.00;96834.69;1031001;28;19933;-69
2022/01/28 01:20:02;;;;;;;;;;;;;;;0.38;100.00;96837.44;1030938;28;19910;-69
2022/01/28 01:21:22;;;;;;;;;;;;;;;0.34;100.00;96836.19;1022953;29;20396;-69
2022/01/28 01:21:56;;;;;;;;;;;;;;;0.31;100.00;96836.53;1023063;28;19921;-69
2022/01/28 01:22:35;;;;;;;;;;;;;;;0.31;100.00;96839.91;1021879;28;20401;-66
2022/01/28 01:23:09;;;;;;;;;;;;;;;0.31;100.00;96841.69;1025260;28;19953;-68
2022/01/28 01:23:49;;;;;;;;;;;;;;;0.28;100.00;96836.84;1026838;28;20323;-69
2022/01/28 01:24:22;;;;;;;;;;;;;;;0.28;100.00;96847.19;1033358;28;19913;-69
2022/01/28 01:25:03;;;;;;;;;;;;;;;0.28;100.00;96844.59;1035164;28;19916;-69
2022/01/28 01:25:42;;;;;;;;;;;;;;;0.23;100.00;96843.34;1038247;28;19910;-69
2022/01/28 01:26:13;;;;;;;;;;;;;;;0.19;100.00;96844.63;1031091;28;19910;-69
2022/01/28 01:26:43;;;;;;;;;;;;;;;0.23;100.00;96845.09;1022918;29;20657;-69
2022/01/28 01:27:14;;;;;;;;;;;;;;;0.18;100.00;96853.34;1022902;28;19915;-68
2022/01/28 01:27:48;;;;;;;;;;;;;;;0.15;100.00;96843.38;1024720;28;19918;-69
2022/01/28 01:28:21;;;;;;;;;;;;;;;0.14;100.00;96854.66;1032375;28;19909;-69
2022/01/28 01:28:51;;;;;;;;;;;;;;;0.18;100.00;96853.34;1039013;28;19952;-69
2022/01/28 01:29:23;;;;;;;;;;;;;;;0.21;100.00;96847.84;1035183;28;19909;-69
2022/01/28 01:29:53;;;;;;;;;;;;;;;0.25;100.00;96852.69;1030945;28;20363;-69
2022/01/28 01:30:25;;;;;;;;;;;;;;;-0.02;100.00;96816.03;1027031;28;19969;-71
2022/01/28 01:30:58;;;;;;;;;;;;;;;0.16;100.00;96844.97;1030901;28;19910;-69
2022/01/28 01:31:28;;;;;;;;;;;;;;;0.17;100.00;96846.59;1027074;28;19925;-68
2022/01/28 01:32:04;;;;;;;;;;;;;;;0.19;100.00;96844.63;1026878;28;19910;-68
2022/01/28 01:32:34;;;;;;;;;;;;;;;0.15;100.00;96848.53;1027952;28;19914;-69
2022/01/28 01:33:05;;;;;;;;;;;;;;;0.20;100.00;96845.44;1030394;28;20514;-69
2022/01/28 01:33:44;;;;;;;;;;;;;;;0.25;100.00;96842.34;1030888;28;19932;-69
2022/01/28 01:34:17;;;;;;;;;;;;;;;0.19;100.00;96849.78;1036947;28;20004;-70
2022/01/28 01:34:48;;;;;;;;;;;;;;;0.26;100.00;96843.97;1034562;28;19906;-70
2022/01/28 01:35:18;;;;;;;;;;;;;;;0.21;100.00;96842.69;1033598;28;19921;-70
2022/01/28 01:35:48;;;;;;;;;;;;;;;0.14;100.00;96836.59;1022873;29;20380;-69
2022/01/28 01:36:18;;;;;;;;;;;;;;;0.16;100.00;96852.72;1027353;28;20016;-69
2022/01/28 01:36:49;;;;;;;;;;;;;;;0.15;100.00;96843.38;1026824;28;19962;-69
2022/01/28 01:37:19;;;;;;;;;;;;;;;0.15;100.00;96845.16;1023248;28;20025;-69
2022/01/28 01:37:49;;;;;;;;;;;;;;;0.14;100.00;96854.66;1034916;28;20271;-70
2022/01/28 01:38:24;;;;;;;;;;;;;;;0.11;100.00;96851.63;1031125;28;20503;-70
2022/01/28 01:38:55;;;;;;;;;;;;;;;0.09;100.00;96849.19;1031623;28;20514;-69
2022/01/28 01:39:30;;;;;;;;;;;;;;;0.04;100.00;96851.50;1023394;28;19903;-69
2022/01/28 01:40:00;;;;;;;;;;;;;;;0.08;100.00;96854.53;1028441;28;19944;-69
2022/01/28 01:40:36;;;;;;;;;;;;;;;0.07;100.00;96863.22;1027064;28;20080;-69
2022/01/28 01:41:12;;;;;;;;;;;;;;;0.10;100.00;96847.41;1025242;28;20380;-68
2022/01/28 01:41:48;;;;;;;;;;;;;;;0.10;100.00;96845.66;1026820;28;19965;-69
2022/01/28 01:42:29;;;;;;;;;;;;;;;0.11;100.00;96855.00;1025320;28;19914;-70
2022/01/28 01:43:19;;;;;;;;;;;;;;;0.10;100.00;96852.56;1021483;29;19954;-69
2022/01/28 01:44:07;;;;;;;;;;;;;;;0.12;100.00;96851.44;1026851;28;20611;-70
2022/01/28 01:45:13;;;;;;;;;;;;;;;0.17;100.00;96846.59;1024888;28;19902;-68
2022/01/28 01:46:21;;;;;;;;;;;;;;;0.17;100.00;96848.38;1031016;28;19988;-69
2022/01/28 01:52:05;;;;;;;;;;;;;;;0.31;100.00;96852.00;1030436;28;19925;-70
2022/01/28 01:52:35;;;;;;;;;;;;;;;0.30;100.00;96852.97;1025466;28;19909;-70
2022/01/28 01:53:06;;;;;;;;;;;;;;;0.33;100.00;96866.31;1026337;28;20198;-70
2022/01/28 01:53:36;;;;;;;;;;;;;;;0.34;100.00;96862.00;1022898;29;19918;-70
2022/01/28 01:54:07;;;;;;;;;;;;;;;0.34;100.00;96864.56;1023097;28;19911;-68
2022/01/28 01:54:40;;;;;;;;;;;;;;;0.33;100.00;96860.38;1026847;28;19910;-71
2022/01/28 01:55:11;;;;;;;;;;;;;;;0.38;100.00;96868.41;1031976;28;19917;-69
2022/01/28 01:55:41;;;;;;;;;;;;;;;0.38;100.00;96863.25;1034494;28;19944;-70
2022/01/28 01:56:12;;;;;;;;;;;;;;;0.39;100.00;96865.66;1034835;28;19926;-69
2022/01/28 01:56:42;;;;;;;;;;;;;;;0.38;100.00;96858.09;1034473;28;19910;-69
2022/01/28 01:57:13;;;;;;;;;;;;;;;0.41;100.00;96868.09;1031539;28;19916;-70
2022/01/28 01:57:43;;;;;;;;;;;;;;;0.43;100.00;96860.94;1019483;29;19911;-70
2022/01/28 01:58:14;;;;;;;;;;;;;;;0.43;100.00;96863.53;1018921;29;19950;-70
2022/01/28 01:58:44;;;;;;;;;;;;;;;0.46;100.00;96865.78;1019452;29;19927;-71
2022/01/28 01:59:15;;;;;;;;;;;;;;;0.44;100.00;96860.00;1019212;29;19925;-70
2022/01/28 01:59:47;;;;;;;;;;;;;;;0.45;100.00;96859.81;1027935;28;19965;-70
2022/01/28 02:00:18;;;;;;;;;;;;;;;0.44;100.00;96867.75;1035637;28;19963;-70
2022/01/28 02:00:48;;;;;;;;;;;;;;;0.45;100.00;96859.81;1035470;28;19917;-70
2022/01/28 02:01:19;;;;;;;;;;;;;;;0.48;100.00;96858.69;1028014;28;19922;-70
2022/01/28 02:01:49;;;;;;;;;;;;;;;0.48;100.00;96858.69;1031311;28;19922;-69
2022/01/28 02:02:19;;;;;;;;;;;;;;;0.47;100.00;96855.28;1035494;28;19914;-70
2022/01/28 02:02:49;;;;;;;;;;;;;;;0.51;100.00;96858.34;1034919;28;20346;-69
2022/01/28 02:03:20;;;;;;;;;;;;;;;0.54;100.00;96862.34;1035293;28;19932;-70
2022/01/28 02:03:50;;;;;;;;;;;;;;;0.54;100.00;96863.16;1027376;28;19918;-69
2022/01/28 02:04:20;;;;;;;;;;;;;;;0.53;100.00;96855.56;1031504;28;19918;-70
2022/01/28 02:04:51;;;;;;;;;;;;;;;0.53;100.00;96855.56;1028202;28;20468;-70
2022/01/28 02:05:21;;;;;;;;;;;;;;;0.53;100.00;96855.56;1032033;28;19921;-70
2022/01/28 02:05:51;;;;;;;;;;;;;;;0.53;100.00;96856.38;1035802;28;19913;-70
2022/01/28 02:06:22;;;;;;;;;;;;;;;0.53;100.00;96871.84;1035590;28;19940;-70
2022/01/28 02:06:52;;;;;;;;;;;;;;;0.55;100.00;96859.59;1027313;28;19918;-70
2022/01/28 02:07:23;;;;;;;;;;;;;;;0.58;100.00;96851.50;1027679;28;19918;-70
2022/01/28 02:07:53;;;;;;;;;;;;;;;0.56;100.00;96856.03;1027418;28;20380;-70
2022/01/28 02:08:26;;;;;;;;;;;;;;;0.55;100.00;96857.00;1021285;29;19929;-70
2022/01/28 02:08:57;;;;;;;;;;;;;;;0.57;100.00;96856.81;1023745;29;19918;-70
2022/01/28 02:09:27;;;;;;;;;;;;;;;0.57;100.00;96851.66;1019532;29;19922;-70
2022/01/28 02:09:57;;;;;;;;;;;;;;;0.54;100.00;96858.00;1020566;28;20001;-70
2022/01/28 02:10:27;;;;;;;;;;;;;;;0.55;100.00;96854.44;1031360;28;19951;-70
2022/01/28 02:10:59;;;;;;;;;;;;;;;0.54;100.00;96852.84;1035716;28;19914;-70
2022/01/28 02:11:29;;;;;;;;;;;;;;;0.53;100.00;96853.78;1031406;28;19925;-70
2022/01/28 02:11:59;;;;;;;;;;;;;;;0.53;100.00;96856.38;1027215;28;19986;-70
2022/01/28 02:12:42;;;;;;;;;;;;;;;0.52;100.00;96854.78;1027227;28;19985;-69
2022/01/28 02:13:13;;;;;;;;;;;;;;;0.55;100.00;96851.03;1032743;28;19969;-69
2022/01/28 02:13:46;;;;;;;;;;;;;;;0.55;100.00;96854.44;1033157;28;19928;-69
2022/01/28 02:14:16;;;;;;;;;;;;;;;0.54;100.00;96852.84;1035544;28;19917;-69
2022/01/28 02:14:46;;;;;;;;;;;;;;;0.55;100.00;96859.59;1031366;28;19918;-69
2022/01/28 02:15:17;;;;;;;;;;;;;;;0.54;100.00;96855.41;1027851;28;19990;-69
2022/01/28 02:15:47;;;;;;;;;;;;;;;0.56;100.00;96853.44;1023378;29;20400;-69
2022/01/28 02:16:17;;;;;;;;;;;;;;;0.55;100.00;96858.78;1023564;28;19919;-70
2022/01/28 02:16:48;;;;;;;;;;;;;;;0.56;100.00;96856.03;1023111;28;19918;-70
2022/01/28 02:17:18;;;;;;;;;;;;;;;0.57;100.00;96855.06;1027443;28;19972;-69
2022/01/28 02:17:48;;;;;;;;;;;;;;;0.58;100.00;96854.09;1023387;29;19929;-71
2022/01/28 02:18:19;;;;;;;;;;;;;;;0.60;100.00;96856.47;1023534;28;19929;-68
2022/01/28 02:18:50;;;;;;;;;;;;;;;0.59;100.00;96853.09;1027108;28;19911;-69
2022/01/28 02:19:20;;;;;;;;;;;;;;;0.60;100.00;96857.28;1027855;28;20646;-69
2022/01/28 02:19:50;;;;;;;;;;;;;;;0.62;100.00;96859.72;1035531;28;19945;-69
2022/01/28 02:20:25;;;;;;;;;;;;;;;0.59;100.00;96855.69;1039459;28;19952;-69
2022/01/28 02:21:03;;;;;;;;;;;;;;;0.58;100.00;96853.28;1034575;28;19910;-69
2022/01/28 02:21:34;;;;;;;;;;;;;;;0.59;100.00;96855.69;1031434;28;20463;-69
2022/01/28 02:22:05;;;;;;;;;;;;;;;0.58;100.00;96856.66;1034049;28;19963;-69
2022/01/28 02:22:35;;;;;;;;;;;;;;;0.60;100.00;96864.22;1035332;28;19906;-70
2022/01/28 02:23:05;;;;;;;;;;;;;;;0.59;100.00;96860.06;1026679;28;19921;-70
2022/01/28 02:23:36;;;;;;;;;;;;;;;0.60;100.00;96856.47;1029475;28;19966;-70
2022/01/28 02:24:07;;;;;;;;;;;;;;;0.58;100.00;96854.09;1035464;28;19920;-69
2022/01/28 02:24:42;;;;;;;;;;;;;;;0.56;100.00;96856.03;1028112;28;20008;-69
2022/01/28 02:25:19;;;;;;;;;;;;;;;0.37;100.00;96826.31;1035274;28;19965;-70
2022/01/28 02:25:50;;;;;;;;;;;;;;;0.59;100.00;96854.88;1035505;28;19909;-68
2022/01/28 02:26:20;;;;;;;;;;;;;;;0.59;100.00;96860.84;1037568;28;19906;-70
2022/01/28 02:26:50;;;;;;;;;;;;;;;0.60;100.00;96854.69;1031175;28;20502;-70
2022/01/28 02:27:21;;;;;;;;;;;;;;;0.63;100.00;96856.16;1027868;28;19910;-70
2022/01/28 02:27:51;;;;;;;;;;;;;;;0.63;100.00;96861.31;1027433;28;20367;-69
2022/01/28 02:28:23;;;;;;;;;;;;;;;0.63;100.00;96856.94;1027562;28;19910;-70
2022/01/28 02:28:56;;;;;;;;;;;;;;;0.64;100.00;96860.34;1031724;28;19914;-70
2022/01/28 02:29:30;;;;;;;;;;;;;;;0.64;100.00;96866.31;1035363;28;20464;-70
2022/01/28 02:30:00;;;;;;;;;;;;;;;0.64;100.00;96865.53;1027449;28;19910;-69
2022/01/28 02:30:30;;;;;;;;;;;;;;;0.64;100.00;96866.31;1028636;28;19914;-70
2022/01/28 02:31:02;;;;;;;;;;;;;;;0.65;100.00;96867.13;1027541;28;20079;-70
2022/01/28 02:31:32;;;;;;;;;;;;;;;0.64;100.00;96862.94;1031680;28;19910;-70
2022/01/28 02:32:04;;;;;;;;;;;;;;;0.67;100.00;96857.41;1031405;28;19917;-69
2022/01/28 02:32:34;;;;;;;;;;;;;;;0.66;100.00;96869.50;1031545;28;20009;-69
2022/01/28 02:33:14;;;;;;;;;;;;;;;0.65;100.00;96862.75;1035027;28;20932;-70
2022/01/28 02:33:44;;;;;;;;;;;;;;;0.69;100.00;96860.63;1031323;28;19951;-69
2022/01/28 02:34:14;;;;;;;;;;;;;;;0.69;100.00;96863.22;1031215;28;20162;-69
2022/01/28 02:34:45;;;;;;;;;;;;;;;0.69;100.00;96874.34;1031574;28;19910;-69
2022/01/28 02:35:15;;;;;;;;;;;;;;;0.68;100.00;96869.34;1031387;28;20300;-69
2022/01/28 02:35:46;;;;;;;;;;;;;;;0.69;100.00;96869.16;1027451;28;19906;-70
2022/01/28 02:36:16;;;;;;;;;;;;;;;0.69;100.00;96866.59;1023379;28;20404;-69
2022/01/28 02:36:46;;;;;;;;;;;;;;;0.70;100.00;96868.22;1023530;29;19911;-69
2022/01/28 02:37:17;;;;;;;;;;;;;;;0.69;100.00;96871.75;1019609;29;19910;-70
2022/01/28 02:37:47;;;;;;;;;;;;;;;0.68;100.00;96865.00;1025338;28;19958;-69
2022/01/28 02:38:19;;;;;;;;;;;;;;;0.68;100.00;96870.16;1031580;28;19910;-70
2022/01/28 02:38:49;;;;;;;;;;;;;;;0.70;100.00;96867.38;1031489;28;19918;-69
2022/01/28 02:39:20;;;;;;;;;;;;;;;0.73;100.00;96866.25;1028088;28;20404;-69
2022/01/28 02:39:52;;;;;;;;;;;;;;;0.71;100.00;96866.44;1031336;28;20272;-70
2022/01/28 02:40:22;;;;;;;;;;;;;;;0.69;100.00;96873.53;1032007;28;19925;-70
2022/01/28 02:40:57;;;;;;;;;;;;;;;0.70;100.00;96875.97;1031637;28;19917;-70
2022/01/28 02:41:32;;;;;;;;;;;;;;;0.73;100.00;96872.22;1027250;28;19922;-69
2022/01/28 02:42:18;;;;;;;;;;;;;;;0.70;100.00;96869.97;1027566;28;19922;-69
2022/01/28 02:44:16;;;;;;;;;;;;;;;0.70;100.00;96881.13;1033090;28;19925;-69
2022/01/28 02:44:54;;;;;;;;;;;;;;;0.71;100.00;96876.78;1030838;28;19918;-69
2022/01/28 02:45:32;;;;;;;;;;;;;;;0.73;100.00;96877.38;1035618;28;19925;-69
2022/01/28 02:46:13;;;;;;;;;;;;;;;0.74;100.00;96879.00;1031212;28;20016;-69
2022/01/28 02:46:55;;;;;;;;;;;;;;;0.79;100.00;96878.47;1034795;28;19965;-69
2022/01/28 02:47:36;;;;;;;;;;;;;;;0.78;100.00;96884.63;1034612;28;20024;-70
2022/01/28 02:48:14;;;;;;;;;;;;;;;0.77;100.00;96877.84;1034531;28;20300;-70
2022/01/28 02:49:01;;;;;;;;;;;;;;;0.78;100.00;96882.06;1039556;28;19988;-70
2022/01/28 02:49:36;;;;;;;;;;;;;;;0.81;100.00;96885.09;1038514;28;19919;-69
2022/01/28 02:50:08;;;;;;;;;;;;;;;0.81;100.00;96889.47;1035347;28;20440;-69
2022/01/28 02:50:46;;;;;;;;;;;;;;;0.85;100.00;96890.72;1031432;28;19952;-68
2022/01/28 02:51:19;;;;;;;;;;;;;;;0.82;100.00;96891.06;1027326;28;20323;-69
2022/01/28 02:51:49;;;;;;;;;;;;;;;0.82;100.00;96885.88;1031298;28;19929;-69
2022/01/28 02:52:28;;;;;;;;;;;;;;;0.82;100.00;96891.84;1023483;29;20803;-69
2022/01/28 02:53:05;;;;;;;;;;;;;;;0.85;100.00;96886.34;1024334;28;19938;-68
2022/01/28 02:53:54;;;;;;;;;;;;;;;0.84;100.00;96889.09;1029307;28;19918;-70
2022/01/28 02:54:25;;;;;;;;;;;;;;;0.83;100.00;96890.06;1027374;28;19918;-69
2022/01/28 02:54:55;;;;;;;;;;;;;;;0.82;100.00;96888.47;1023384;29;20589;-69
2022/01/28 02:55:25;;;;;;;;;;;;;;;0.83;100.00;96880.53;1019462;29;20004;-69
2022/01/28 02:56:00;;;;;;;;;;;;;;;0.82;100.00;96891.06;1022001;28;19923;-69
2022/01/28 02:57:05;;;;;;;;;;;;;;;0.85;100.00;96883.75;1020058;29;20322;-69
2022/01/28 02:57:39;;;;;;;;;;;;;;;0.88;100.00;96885.19;1023402;29;20036;-69
2022/01/28 02:58:21;;;;;;;;;;;;;;;0.91;100.00;96884.84;1024535;28;20294;-70
2022/01/28 02:58:51;;;;;;;;;;;;;;;0.89;100.00;96891.97;1035663;28;20468;-67
2022/01/28 02:59:21;;;;;;;;;;;;;;;0.88;100.00;96886.00;1037056;28;19917;-69
2022/01/28 02:59:52;;;;;;;;;;;;;;;0.90;100.00;96888.41;1037711;28;19921;-69
2022/01/28 03:00:22;;;;;;;;;;;;;;;0.93;100.00;96888.06;1034651;28;19922;-69
2022/01/28 03:00:53;;;;;;;;;;;;;;;0.93;100.00;96886.28;1030457;28;19926;-69
2022/01/28 03:01:23;;;;;;;;;;;;;;;0.97;100.00;96889.31;1034589;28;19921;-69
2022/01/28 03:01:54;;;;;;;;;;;;;;;0.96;100.00;96887.72;1030983;28;19926;-69
2022/01/28 03:02:24;;;;;;;;;;;;;;;0.95;100.00;96891.28;1026672;28;19926;-69
2022/01/28 03:02:54;;;;;;;;;;;;;;;0.97;100.00;96891.09;1021220;29;20069;-70
2022/01/28 03:03:25;;;;;;;;;;;;;;;0.95;100.00;96891.28;1022794;28;19961;-69
2022/01/28 03:03:56;;;;;;;;;;;;;;;0.97;100.00;96889.31;1026741;28;20360;-69
2022/01/28 03:05:49;;;;;;;;;;;;;;;0.97;100.00;96886.72;1030774;28;19921;-69
2022/01/28 03:06:19;;;;;;;;;;;;;;;0.96;100.00;96887.72;1030904;28;20522;-69
2022/01/28 03:06:49;;;;;;;;;;;;;;;0.97;100.00;96897.06;1033437;28;19910;-69
2022/01/28 03:07:24;;;;;;;;;;;;;;;1.02;100.00;96884.44;1035382;28;19944;-69
2022/01/28 03:07:54;;;;;;;;;;;;;;;1.03;100.00;96882.66;1030154;28;19917;-72
2022/01/28 03:08:28;;;;;;;;;;;;;;;1.03;100.00;96882.66;1023245;28;19910;-68
2022/01/28 03:09:03;;;;;;;;;;;;;;;1.05;100.00;96889.25;1022801;29;19911;-69
2022/01/28 03:09:50;;;;;;;;;;;;;;;1.07;100.00;96895.03;1021272;28;20412;-69
2022/01/28 03:10:31;;;;;;;;;;;;;;;1.10;100.00;96892.13;1030049;28;19906;-69
2022/01/28 03:12:12;;;;;;;;;;;;;;;1.11;100.00;96896.31;1036946;28;19905;-69
2022/01/28 03:15:53;;;;;;;;;;;;;;;1.14;100.00;96898.56;1024125;28;20640;-68
2022/01/28 03:16:25;;;;;;;;;;;;;;;1.13;100.00;96899.53;1020862;29;20002;-69
2022/01/28 03:17:03;;;;;;;;;;;;;;;1.12;100.00;96903.09;1018302;29;19911;-70
2022/01/28 03:18:49;;;;;;;;;;;;;;;1.11;100.00;96896.31;1030705;28;20423;-69
2022/01/28 03:19:22;;;;;;;;;;;;;;;1.12;100.00;96897.94;1030758;28;20702;-69
2022/01/28 03:20:05;;;;;;;;;;;;;;;1.13;100.00;96903.91;1032938;28;20516;-70
2022/01/28 03:20:55;;;;;;;;;;;;;;;1.11;100.00;96904.09;1030656;28;20392;-69
2022/01/28 03:22:04;;;;;;;;;;;;;;;1.11;100.00;96898.91;1031115;28;20012;-69
2022/01/28 03:22:34;;;;;;;;;;;;;;;1.14;100.00;96901.16;1030308;28;20008;-70
2022/01/28 03:23:05;;;;;;;;;;;;;;;1.16;100.00;96898.38;1026150;28;20388;-70
2022/01/28 03:23:38;;;;;;;;;;;;;;;1.14;100.00;96901.16;1022695;28;19937;-69
2022/01/28 03:24:09;;;;;;;;;;;;;;;1.14;100.00;96901.16;1019317;29;20578;-69
2022/01/28 03:24:41;;;;;;;;;;;;;;;1.14;100.00;96901.16;1024079;28;19954;-70
2022/01/28 03:25:11;;;;;;;;;;;;;;;1.15;100.00;96905.34;1030716;28;20308;-69
2022/01/28 03:25:43;;;;;;;;;;;;;;;1.16;100.00;96903.53;1027240;28;19921;-70
2022/01/28 03:26:14;;;;;;;;;;;;;;;1.13;100.00;96904.69;1030684;28;19961;-70
2022/01/28 03:26:48;;;;;;;;;;;;;;;1.12;100.00;96903.09;1029898;28;19914;-70
2022/01/28 03:27:44;;;;;;;;;;;;;;;1.13;100.00;96912.44;1027278;28;19918;-70
2022/01/28 03:28:09;;;;;;;;;;;;;;;1.11;100.00;96911.84;1033531;28;19975;-72
2022/01/28 03:28:39;;;;;;;;;;;;;;;1.11;100.00;96914.41;1030241;28;19944;-70